sensor_id;sensor_type;location;lat;lon;timestamp;temperature;humidity
5276;DHT22;2661;50.786;12.728;2023-08-17T00:00:28;19.40;1.00
5276;DHT22;2661;50.786;12.728;2023-08-17T00:02:54;19.40;1.00
5276;DHT22;2661;50.786;12.728;2023-08-17T00:05:21;19.40;1.00
5276;DHT22;2661;50.786;12.728;2023-08-17T00:07:48;19.40;1.00
5276;DHT22;2661;50.786;12.728;2023-08-17T00:10:14;19.40;1.00
5276;DHT22;2661;50.786;12.728;2023-08-17T00:12:41;19.40;1.00
5276;DHT22;2661;50.786;12.728;2023-08-17T00:15:08;19.40;1.00
5276;DHT22;2661;50.786;12.728;2023-08-17T00:17:34;19.30;1.00
5276;DHT22;2661;50.786;12.728;2023-08-17T00:20:01;19.30;1.00
5276;DHT22;2661;50.786;12.728;2023-08-17T00:22:31;19.30;1.00
5276;DHT22;2661;50.786;12.728;2023-08-17T00:24:57;19.30;1.00
5276;DHT22;2661;50.786;12.728;2023-08-17T00:27:24;19.20;1.00
5276;DHT22;2661;50.786;12.728;2023-08-17T00:29:51;19.20;1.00
5276;DHT22;2661;50.786;12.728;2023-08-17T00:32:17;19.20;1.00
5276;DHT22;2661;50.786;12.728;2023-08-17T00:34:46;19.10;1.00
5276;DHT22;2661;50.786;12.728;2023-08-17T00:37:13;19.10;1.00
5276;DHT22;2661;50.786;12.728;2023-08-17T00:39:39;19.10;1.00
5276;DHT22;2661;50.786;12.728;2023-08-17T00:42:06;19.00;1.00
5276;DHT22;2661;50.786;12.728;2023-08-17T00:44:34;19.00;24.50
5276;DHT22;2661;50.786;12.728;2023-08-17T00:47:01;19.00;61.70
5276;DHT22;2661;50.786;12.728;2023-08-17T00:49:27;19.00;69.40
5276;DHT22;2661;50.786;12.728;2023-08-17T00:51:54;19.00;52.40
5276;DHT22;2661;50.786;12.728;2023-08-17T00:54:23;19.00;23.20
5276;DHT22;2661;50.786;12.728;2023-08-17T00:56:50;19.00;1.00
5276;DHT22;2661;50.786;12.728;2023-08-17T00:59:17;19.00;1.00
5276;DHT22;2661;50.786;12.728;2023-08-17T01:01:44;18.90;1.00
5276;DHT22;2661;50.786;12.728;2023-08-17T01:04:12;18.90;1.00
5276;DHT22;2661;50.786;12.728;2023-08-17T01:06:38;18.90;1.00
5276;DHT22;2661;50.786;12.728;2023-08-17T01:09:05;18.90;1.00
5276;DHT22;2661;50.786;12.728;2023-08-17T01:11:47;18.80;1.00
5276;DHT22;2661;50.786;12.728;2023-08-17T01:16:43;18.80;74.30
5276;DHT22;2661;50.786;12.728;2023-08-17T01:19:16;18.80;44.60
5276;DHT22;2661;50.786;12.728;2023-08-17T01:21:49;18.80;2.50
5276;DHT22;2661;50.786;12.728;2023-08-17T01:24:16;18.80;26.40
5276;DHT22;2661;50.786;12.728;2023-08-17T01:26:43;18.70;25.50
5276;DHT22;2661;50.786;12.728;2023-08-17T01:29:09;18.70;1.00
5276;DHT22;2661;50.786;12.728;2023-08-17T01:34:14;18.70;26.40
5276;DHT22;2661;50.786;12.728;2023-08-17T01:36:50;18.70;1.00
5276;DHT22;2661;50.786;12.728;2023-08-17T01:39:18;18.60;1.00
5276;DHT22;2661;50.786;12.728;2023-08-17T01:41:47;18.60;1.00
5276;DHT22;2661;50.786;12.728;2023-08-17T01:44:14;18.60;1.00
5276;DHT22;2661;50.786;12.728;2023-08-17T01:46:40;18.60;1.00
5276;DHT22;2661;50.786;12.728;2023-08-17T01:49:08;18.50;1.00
5276;DHT22;2661;50.786;12.728;2023-08-17T01:51:35;18.50;1.00
5276;DHT22;2661;50.786;12.728;2023-08-17T01:54:01;18.50;1.00
5276;DHT22;2661;50.786;12.728;2023-08-17T01:56:28;18.40;1.00
5276;DHT22;2661;50.786;12.728;2023-08-17T01:58:55;18.40;1.00
5276;DHT22;2661;50.786;12.728;2023-08-17T02:01:21;18.40;1.00
5276;DHT22;2661;50.786;12.728;2023-08-17T02:03:48;18.40;1.00
5276;DHT22;2661;50.786;12.728;2023-08-17T02:06:14;18.40;1.00
5276;DHT22;2661;50.786;12.728;2023-08-17T02:08:41;18.30;1.00
5276;DHT22;2661;50.786;12.728;2023-08-17T02:11:08;18.30;1.00
5276;DHT22;2661;50.786;12.728;2023-08-17T02:13:36;18.30;1.00
5276;DHT22;2661;50.786;12.728;2023-08-17T02:16:04;18.30;1.00
5276;DHT22;2661;50.786;12.728;2023-08-17T02:18:30;18.20;1.00
5276;DHT22;2661;50.786;12.728;2023-08-17T02:20:58;18.20;1.00
5276;DHT22;2661;50.786;12.728;2023-08-17T02:23:24;18.20;1.00
5276;DHT22;2661;50.786;12.728;2023-08-17T02:25:51;18.20;1.00
5276;DHT22;2661;50.786;12.728;2023-08-17T02:28:17;18.20;1.00
5276;DHT22;2661;50.786;12.728;2023-08-17T02:30:44;18.10;1.00
5276;DHT22;2661;50.786;12.728;2023-08-17T02:33:11;18.20;1.00
5276;DHT22;2661;50.786;12.728;2023-08-17T02:35:37;18.10;1.00
5276;DHT22;2661;50.786;12.728;2023-08-17T02:38:04;18.10;1.00
5276;DHT22;2661;50.786;12.728;2023-08-17T02:40:31;18.10;1.00
5276;DHT22;2661;50.786;12.728;2023-08-17T02:42:57;18.00;1.00
5276;DHT22;2661;50.786;12.728;2023-08-17T02:45:24;18.00;1.00
5276;DHT22;2661;50.786;12.728;2023-08-17T02:47:50;18.00;1.00
5276;DHT22;2661;50.786;12.728;2023-08-17T02:50:17;18.00;1.00
5276;DHT22;2661;50.786;12.728;2023-08-17T02:52:43;18.00;1.00
5276;DHT22;2661;50.786;12.728;2023-08-17T02:55:10;18.00;1.00
5276;DHT22;2661;50.786;12.728;2023-08-17T02:57:37;18.00;12.90
5276;DHT22;2661;50.786;12.728;2023-08-17T03:00:03;18.20;99.90
5276;DHT22;2661;50.786;12.728;2023-08-17T03:02:30;18.30;99.90
5276;DHT22;2661;50.786;12.728;2023-08-17T03:04:57;18.40;1.00
5276;DHT22;2661;50.786;12.728;2023-08-17T03:07:23;18.50;1.00
5276;DHT22;2661;50.786;12.728;2023-08-17T03:09:51;18.70;1.00
5276;DHT22;2661;50.786;12.728;2023-08-17T03:12:17;18.80;99.90
5276;DHT22;2661;50.786;12.728;2023-08-17T03:14:44;18.80;99.90
5276;DHT22;2661;50.786;12.728;2023-08-17T03:17:10;18.80;99.90
5276;DHT22;2661;50.786;12.728;2023-08-17T03:19:37;18.90;99.90
5276;DHT22;2661;50.786;12.728;2023-08-17T03:22:04;18.90;99.90
5276;DHT22;2661;50.786;12.728;2023-08-17T03:24:30;18.90;99.90
5276;DHT22;2661;50.786;12.728;2023-08-17T03:26:57;18.90;99.90
5276;DHT22;2661;50.786;12.728;2023-08-17T03:29:23;18.90;99.90
5276;DHT22;2661;50.786;12.728;2023-08-17T03:31:50;18.90;16.20
5276;DHT22;2661;50.786;12.728;2023-08-17T03:34:17;18.90;1.00
5276;DHT22;2661;50.786;12.728;2023-08-17T03:36:43;18.90;1.00
5276;DHT22;2661;50.786;12.728;2023-08-17T03:39:10;18.90;99.90
5276;DHT22;2661;50.786;12.728;2023-08-17T03:41:37;18.80;1.00
5276;DHT22;2661;50.786;12.728;2023-08-17T03:44:03;18.80;99.90
5276;DHT22;2661;50.786;12.728;2023-08-17T03:46:33;18.80;1.00
5276;DHT22;2661;50.786;12.728;2023-08-17T03:49:00;18.80;1.00
5276;DHT22;2661;50.786;12.728;2023-08-17T03:51:26;18.90;99.90
5276;DHT22;2661;50.786;12.728;2023-08-17T03:53:53;18.80;99.90
5276;DHT22;2661;50.786;12.728;2023-08-17T03:56:20;18.80;99.90
5276;DHT22;2661;50.786;12.728;2023-08-17T03:58:46;18.90;1.00
5276;DHT22;2661;50.786;12.728;2023-08-17T04:01:13;18.90;1.00
5276;DHT22;2661;50.786;12.728;2023-08-17T04:03:40;19.00;1.00
5276;DHT22;2661;50.786;12.728;2023-08-17T04:06:07;19.00;1.00
5276;DHT22;2661;50.786;12.728;2023-08-17T04:08:36;19.00;1.00
5276;DHT22;2661;50.786;12.728;2023-08-17T04:11:04;19.00;1.00
5276;DHT22;2661;50.786;12.728;2023-08-17T04:13:31;19.00;1.00
5276;DHT22;2661;50.786;12.728;2023-08-17T04:15:58;18.90;1.00
5276;DHT22;2661;50.786;12.728;2023-08-17T04:18:24;19.00;1.00
5276;DHT22;2661;50.786;12.728;2023-08-17T04:20:51;18.90;1.00
5276;DHT22;2661;50.786;12.728;2023-08-17T04:23:20;18.90;1.00
5276;DHT22;2661;50.786;12.728;2023-08-17T04:25:47;18.90;1.00
5276;DHT22;2661;50.786;12.728;2023-08-17T04:28:14;18.90;1.00
5276;DHT22;2661;50.786;12.728;2023-08-17T04:30:42;18.90;99.90
5276;DHT22;2661;50.786;12.728;2023-08-17T04:33:09;18.90;99.90
5276;DHT22;2661;50.786;12.728;2023-08-17T04:35:36;18.90;1.00
5276;DHT22;2661;50.786;12.728;2023-08-17T04:38:02;18.90;1.00
5276;DHT22;2661;50.786;12.728;2023-08-17T04:40:29;18.90;1.00
5276;DHT22;2661;50.786;12.728;2023-08-17T04:42:56;18.80;1.00
5276;DHT22;2661;50.786;12.728;2023-08-17T04:45:22;18.80;1.00
5276;DHT22;2661;50.786;12.728;2023-08-17T04:47:49;18.80;99.90
5276;DHT22;2661;50.786;12.728;2023-08-17T04:50:16;18.80;99.90
5276;DHT22;2661;50.786;12.728;2023-08-17T04:52:43;18.80;1.00
5276;DHT22;2661;50.786;12.728;2023-08-17T04:55:10;18.80;99.90
5276;DHT22;2661;50.786;12.728;2023-08-17T04:57:37;18.80;99.90
5276;DHT22;2661;50.786;12.728;2023-08-17T05:00:05;18.80;1.00
5276;DHT22;2661;50.786;12.728;2023-08-17T05:02:35;18.80;1.00
5276;DHT22;2661;50.786;12.728;2023-08-17T05:05:05;18.90;1.00
5276;DHT22;2661;50.786;12.728;2023-08-17T05:07:33;18.90;1.00
5276;DHT22;2661;50.786;12.728;2023-08-17T05:09:59;18.90;1.00
5276;DHT22;2661;50.786;12.728;2023-08-17T05:12:26;18.90;1.00
5276;DHT22;2661;50.786;12.728;2023-08-17T05:14:53;18.90;1.00
5276;DHT22;2661;50.786;12.728;2023-08-17T05:17:20;18.90;1.00
5276;DHT22;2661;50.786;12.728;2023-08-17T05:19:46;18.90;1.00
5276;DHT22;2661;50.786;12.728;2023-08-17T05:22:13;18.90;1.00
5276;DHT22;2661;50.786;12.728;2023-08-17T05:24:39;18.90;1.00
5276;DHT22;2661;50.786;12.728;2023-08-17T05:27:06;19.00;99.90
5276;DHT22;2661;50.786;12.728;2023-08-17T05:29:33;19.10;99.90
5276;DHT22;2661;50.786;12.728;2023-08-17T05:31:59;19.10;99.90
5276;DHT22;2661;50.786;12.728;2023-08-17T05:34:26;19.10;71.00
5276;DHT22;2661;50.786;12.728;2023-08-17T05:36:53;19.20;16.70
5276;DHT22;2661;50.786;12.728;2023-08-17T05:39:19;19.20;1.00
5276;DHT22;2661;50.786;12.728;2023-08-17T05:41:46;19.30;1.00
5276;DHT22;2661;50.786;12.728;2023-08-17T05:44:12;19.30;1.00
5276;DHT22;2661;50.786;12.728;2023-08-17T05:46:41;19.40;1.00
5276;DHT22;2661;50.786;12.728;2023-08-17T05:49:08;19.50;1.00
5276;DHT22;2661;50.786;12.728;2023-08-17T05:51:34;19.60;99.90
5276;DHT22;2661;50.786;12.728;2023-08-17T05:54:01;19.60;1.00
5276;DHT22;2661;50.786;12.728;2023-08-17T05:56:28;19.70;1.00
5276;DHT22;2661;50.786;12.728;2023-08-17T05:58:54;19.90;99.90
5276;DHT22;2661;50.786;12.728;2023-08-17T06:01:21;19.90;99.90
5276;DHT22;2661;50.786;12.728;2023-08-17T06:03:48;19.90;99.90
5276;DHT22;2661;50.786;12.728;2023-08-17T06:06:14;20.00;99.90
5276;DHT22;2661;50.786;12.728;2023-08-17T06:08:41;20.10;99.90
5276;DHT22;2661;50.786;12.728;2023-08-17T06:11:08;20.00;99.90
5276;DHT22;2661;50.786;12.728;2023-08-17T06:13:34;20.10;91.10
5276;DHT22;2661;50.786;12.728;2023-08-17T06:16:02;20.10;46.60
5276;DHT22;2661;50.786;12.728;2023-08-17T06:18:29;20.10;61.40
5276;DHT22;2661;50.786;12.728;2023-08-17T06:20:56;20.00;99.90
5276;DHT22;2661;50.786;12.728;2023-08-17T06:23:23;20.00;99.90
5276;DHT22;2661;50.786;12.728;2023-08-17T06:25:50;20.10;1.00
5276;DHT22;2661;50.786;12.728;2023-08-17T06:28:17;20.10;40.00
5276;DHT22;2661;50.786;12.728;2023-08-17T06:30:43;20.10;99.90
5276;DHT22;2661;50.786;12.728;2023-08-17T06:33:10;20.10;68.70
5276;DHT22;2661;50.786;12.728;2023-08-17T06:35:37;20.10;7.00
5276;DHT22;2661;50.786;12.728;2023-08-17T06:38:03;20.10;15.20
5276;DHT22;2661;50.786;12.728;2023-08-17T06:40:30;20.10;58.60
5276;DHT22;2661;50.786;12.728;2023-08-17T06:42:56;20.10;30.00
5276;DHT22;2661;50.786;12.728;2023-08-17T06:45:23;20.10;24.20
5276;DHT22;2661;50.786;12.728;2023-08-17T06:47:49;20.10;9.00
5276;DHT22;2661;50.786;12.728;2023-08-17T06:50:16;20.10;1.00
5276;DHT22;2661;50.786;12.728;2023-08-17T06:52:43;20.00;20.70
5276;DHT22;2661;50.786;12.728;2023-08-17T06:55:09;20.10;48.60
5276;DHT22;2661;50.786;12.728;2023-08-17T06:57:39;20.10;19.10
5276;DHT22;2661;50.786;12.728;2023-08-17T07:00:06;20.00;8.90
5276;DHT22;2661;50.786;12.728;2023-08-17T07:02:33;20.00;1.00
5276;DHT22;2661;50.786;12.728;2023-08-17T07:05:18;20.10;1.00
5276;DHT22;2661;50.786;12.728;2023-08-17T07:07:47;20.10;53.40
5276;DHT22;2661;50.786;12.728;2023-08-17T07:10:14;20.00;46.90
5276;DHT22;2661;50.786;12.728;2023-08-17T07:12:41;20.10;99.90
5276;DHT22;2661;50.786;12.728;2023-08-17T07:15:07;20.10;99.90
5276;DHT22;2661;50.786;12.728;2023-08-17T07:17:34;20.20;99.90
5276;DHT22;2661;50.786;12.728;2023-08-17T07:20:01;20.20;99.90
5276;DHT22;2661;50.786;12.728;2023-08-17T07:22:30;20.30;99.90
5276;DHT22;2661;50.786;12.728;2023-08-17T07:24:57;20.30;99.90
5276;DHT22;2661;50.786;12.728;2023-08-17T07:27:24;20.40;99.90
5276;DHT22;2661;50.786;12.728;2023-08-17T07:29:51;20.50;99.90
5276;DHT22;2661;50.786;12.728;2023-08-17T07:32:18;20.60;99.90
5276;DHT22;2661;50.786;12.728;2023-08-17T07:34:45;20.70;99.90
5276;DHT22;2661;50.786;12.728;2023-08-17T07:37:11;20.80;99.90
5276;DHT22;2661;50.786;12.728;2023-08-17T07:39:41;20.90;94.30
5276;DHT22;2661;50.786;12.728;2023-08-17T07:42:08;21.00;1.00
5276;DHT22;2661;50.786;12.728;2023-08-17T07:44:34;21.10;1.00
5276;DHT22;2661;50.786;12.728;2023-08-17T07:47:01;21.30;1.00
5276;DHT22;2661;50.786;12.728;2023-08-17T07:49:28;21.30;1.00
5276;DHT22;2661;50.786;12.728;2023-08-17T07:51:58;21.40;1.60
5276;DHT22;2661;50.786;12.728;2023-08-17T07:54:25;21.50;50.40
5276;DHT22;2661;50.786;12.728;2023-08-17T07:56:52;21.60;1.00
5276;DHT22;2661;50.786;12.728;2023-08-17T07:59:18;21.60;1.00
5276;DHT22;2661;50.786;12.728;2023-08-17T08:01:45;21.60;1.00
5276;DHT22;2661;50.786;12.728;2023-08-17T08:04:12;21.70;1.00
5276;DHT22;2661;50.786;12.728;2023-08-17T08:06:38;21.80;1.00
5276;DHT22;2661;50.786;12.728;2023-08-17T08:09:05;21.90;39.80
5276;DHT22;2661;50.786;12.728;2023-08-17T08:11:32;22.00;1.00
5276;DHT22;2661;50.786;12.728;2023-08-17T08:13:59;22.10;1.00
5276;DHT22;2661;50.786;12.728;2023-08-17T08:16:26;22.10;1.00
5276;DHT22;2661;50.786;12.728;2023-08-17T08:18:53;22.10;1.00
5276;DHT22;2661;50.786;12.728;2023-08-17T08:21:22;22.10;1.00
5276;DHT22;2661;50.786;12.728;2023-08-17T08:23:48;22.10;1.00
5276;DHT22;2661;50.786;12.728;2023-08-17T08:26:15;22.00;1.00
5276;DHT22;2661;50.786;12.728;2023-08-17T08:28:42;22.00;1.00
5276;DHT22;2661;50.786;12.728;2023-08-17T08:31:08;22.00;1.00
5276;DHT22;2661;50.786;12.728;2023-08-17T08:33:35;22.00;1.00
5276;DHT22;2661;50.786;12.728;2023-08-17T08:36:01;22.00;1.00
5276;DHT22;2661;50.786;12.728;2023-08-17T08:38:28;22.00;1.00
5276;DHT22;2661;50.786;12.728;2023-08-17T08:40:55;22.00;1.00
5276;DHT22;2661;50.786;12.728;2023-08-17T08:43:22;22.10;1.00
5276;DHT22;2661;50.786;12.728;2023-08-17T08:45:49;22.00;1.00
5276;DHT22;2661;50.786;12.728;2023-08-17T08:48:18;22.00;1.00
5276;DHT22;2661;50.786;12.728;2023-08-17T08:50:45;22.00;1.00
5276;DHT22;2661;50.786;12.728;2023-08-17T08:53:17;22.00;1.00
5276;DHT22;2661;50.786;12.728;2023-08-17T08:55:49;22.10;1.00
5276;DHT22;2661;50.786;12.728;2023-08-17T08:58:19;22.20;1.00
5276;DHT22;2661;50.786;12.728;2023-08-17T09:00:47;22.30;1.00
5276;DHT22;2661;50.786;12.728;2023-08-17T09:03:17;22.40;1.00
5276;DHT22;2661;50.786;12.728;2023-08-17T09:05:45;22.50;1.00
5276;DHT22;2661;50.786;12.728;2023-08-17T09:08:13;22.60;1.00
5276;DHT22;2661;50.786;12.728;2023-08-17T09:10:43;22.60;1.00
5276;DHT22;2661;50.786;12.728;2023-08-17T09:13:09;22.60;1.00
5276;DHT22;2661;50.786;12.728;2023-08-17T09:15:36;22.70;1.00
5276;DHT22;2661;50.786;12.728;2023-08-17T09:18:04;22.80;1.00
5276;DHT22;2661;50.786;12.728;2023-08-17T09:20:38;22.90;1.00
5276;DHT22;2661;50.786;12.728;2023-08-17T09:23:12;23.00;1.00
5276;DHT22;2661;50.786;12.728;2023-08-17T09:25:40;23.10;1.00
5276;DHT22;2661;50.786;12.728;2023-08-17T09:28:07;23.10;1.00
5276;DHT22;2661;50.786;12.728;2023-08-17T09:30:51;23.20;1.00
5276;DHT22;2661;50.786;12.728;2023-08-17T09:33:22;23.30;1.00
5276;DHT22;2661;50.786;12.728;2023-08-17T09:35:49;23.30;1.00
5276;DHT22;2661;50.786;12.728;2023-08-17T09:38:16;23.30;1.00
5276;DHT22;2661;50.786;12.728;2023-08-17T09:40:43;23.40;1.00
5276;DHT22;2661;50.786;12.728;2023-08-17T09:43:10;23.40;1.00
5276;DHT22;2661;50.786;12.728;2023-08-17T09:45:37;23.40;1.00
5276;DHT22;2661;50.786;12.728;2023-08-17T09:48:04;23.50;1.00
5276;DHT22;2661;50.786;12.728;2023-08-17T09:50:30;23.50;1.00
5276;DHT22;2661;50.786;12.728;2023-08-17T09:52:57;23.50;1.00
5276;DHT22;2661;50.786;12.728;2023-08-17T09:55:24;23.40;1.00
5276;DHT22;2661;50.786;12.728;2023-08-17T09:57:51;23.40;1.00
5276;DHT22;2661;50.786;12.728;2023-08-17T10:00:18;23.50;1.00
5276;DHT22;2661;50.786;12.728;2023-08-17T10:02:47;23.50;1.00
5276;DHT22;2661;50.786;12.728;2023-08-17T10:05:16;23.50;1.00
5276;DHT22;2661;50.786;12.728;2023-08-17T10:07:49;23.60;1.00
5276;DHT22;2661;50.786;12.728;2023-08-17T10:10:19;23.60;1.00
5276;DHT22;2661;50.786;12.728;2023-08-17T10:13:31;23.70;1.00
5276;DHT22;2661;50.786;12.728;2023-08-17T10:15:38;23.60;1.00
5276;DHT22;2661;50.786;12.728;2023-08-17T10:18:22;23.60;1.00
5276;DHT22;2661;50.786;12.728;2023-08-17T10:20:54;23.60;1.00
5276;DHT22;2661;50.786;12.728;2023-08-17T10:23:26;23.60;1.00
5276;DHT22;2661;50.786;12.728;2023-08-17T10:25:53;23.70;1.00
5276;DHT22;2661;50.786;12.728;2023-08-17T10:28:21;23.70;1.00
5276;DHT22;2661;50.786;12.728;2023-08-17T10:30:48;23.70;1.00
5276;DHT22;2661;50.786;12.728;2023-08-17T10:33:15;23.70;1.00
5276;DHT22;2661;50.786;12.728;2023-08-17T10:35:42;23.70;1.00
5276;DHT22;2661;50.786;12.728;2023-08-17T10:38:09;23.70;1.00
5276;DHT22;2661;50.786;12.728;2023-08-17T10:40:38;23.70;1.00
5276;DHT22;2661;50.786;12.728;2023-08-17T10:43:05;23.80;1.00
5276;DHT22;2661;50.786;12.728;2023-08-17T10:45:33;23.80;1.00
5276;DHT22;2661;50.786;12.728;2023-08-17T10:50:38;23.80;1.00
5276;DHT22;2661;50.786;12.728;2023-08-17T10:53:08;23.90;1.00
5276;DHT22;2661;50.786;12.728;2023-08-17T10:55:38;23.90;1.00
5276;DHT22;2661;50.786;12.728;2023-08-17T10:58:06;23.90;1.00
5276;DHT22;2661;50.786;12.728;2023-08-17T11:00:40;23.90;1.00
5276;DHT22;2661;50.786;12.728;2023-08-17T11:03:09;24.00;1.00
5276;DHT22;2661;50.786;12.728;2023-08-17T11:08:07;24.20;1.00
5276;DHT22;2661;50.786;12.728;2023-08-17T11:10:38;24.20;1.00
5276;DHT22;2661;50.786;12.728;2023-08-17T11:13:05;24.20;1.00
5276;DHT22;2661;50.786;12.728;2023-08-17T11:15:37;24.40;1.00
5276;DHT22;2661;50.786;12.728;2023-08-17T11:18:06;24.50;1.00
5276;DHT22;2661;50.786;12.728;2023-08-17T11:20:36;24.50;1.00
5276;DHT22;2661;50.786;12.728;2023-08-17T11:23:04;24.40;1.00
5276;DHT22;2661;50.786;12.728;2023-08-17T11:25:31;24.50;1.00
5276;DHT22;2661;50.786;12.728;2023-08-17T11:27:59;24.50;1.00
5276;DHT22;2661;50.786;12.728;2023-08-17T11:30:26;24.50;1.00
5276;DHT22;2661;50.786;12.728;2023-08-17T11:32:54;24.40;1.00
5276;DHT22;2661;50.786;12.728;2023-08-17T11:35:21;24.50;1.00
5276;DHT22;2661;50.786;12.728;2023-08-17T11:37:48;24.40;1.00
5276;DHT22;2661;50.786;12.728;2023-08-17T11:40:15;24.40;1.00
5276;DHT22;2661;50.786;12.728;2023-08-17T11:42:42;24.50;1.00
5276;DHT22;2661;50.786;12.728;2023-08-17T11:45:09;24.50;1.00
5276;DHT22;2661;50.786;12.728;2023-08-17T11:47:36;24.60;1.00
5276;DHT22;2661;50.786;12.728;2023-08-17T11:50:04;24.70;1.00
5276;DHT22;2661;50.786;12.728;2023-08-17T11:52:45;24.80;1.00
5276;DHT22;2661;50.786;12.728;2023-08-17T11:55:15;24.80;1.00
5276;DHT22;2661;50.786;12.728;2023-08-17T11:57:43;24.80;1.00
5276;DHT22;2661;50.786;12.728;2023-08-17T12:00:16;24.90;1.00
5276;DHT22;2661;50.786;12.728;2023-08-17T12:02:43;25.00;1.00
5276;DHT22;2661;50.786;12.728;2023-08-17T12:05:11;25.00;1.00
5276;DHT22;2661;50.786;12.728;2023-08-17T12:07:38;25.10;1.00
5276;DHT22;2661;50.786;12.728;2023-08-17T12:10:05;25.00;1.00
5276;DHT22;2661;50.786;12.728;2023-08-17T12:12:36;25.00;1.00
5276;DHT22;2661;50.786;12.728;2023-08-17T12:15:03;25.10;1.00
5276;DHT22;2661;50.786;12.728;2023-08-17T12:17:30;25.10;1.00
5276;DHT22;2661;50.786;12.728;2023-08-17T12:19:58;25.10;1.00
5276;DHT22;2661;50.786;12.728;2023-08-17T12:22:25;25.10;1.00
5276;DHT22;2661;50.786;12.728;2023-08-17T12:24:52;25.20;1.00
5276;DHT22;2661;50.786;12.728;2023-08-17T12:27:21;25.30;1.00
5276;DHT22;2661;50.786;12.728;2023-08-17T12:29:48;25.30;1.00
5276;DHT22;2661;50.786;12.728;2023-08-17T12:32:15;25.40;1.00
5276;DHT22;2661;50.786;12.728;2023-08-17T12:34:42;25.50;1.00
5276;DHT22;2661;50.786;12.728;2023-08-17T12:37:09;25.30;1.00
5276;DHT22;2661;50.786;12.728;2023-08-17T12:39:36;25.20;1.00
5276;DHT22;2661;50.786;12.728;2023-08-17T12:42:03;25.00;1.00
5276;DHT22;2661;50.786;12.728;2023-08-17T12:44:30;24.90;1.00
5276;DHT22;2661;50.786;12.728;2023-08-17T12:46:57;24.80;1.00
5276;DHT22;2661;50.786;12.728;2023-08-17T12:49:24;24.70;1.00
5276;DHT22;2661;50.786;12.728;2023-08-17T12:51:50;24.60;1.00
5276;DHT22;2661;50.786;12.728;2023-08-17T12:54:17;24.50;1.00
5276;DHT22;2661;50.786;12.728;2023-08-17T12:56:44;24.60;1.00
5276;DHT22;2661;50.786;12.728;2023-08-17T12:59:10;24.50;1.00
5276;DHT22;2661;50.786;12.728;2023-08-17T13:01:37;24.50;1.00
5276;DHT22;2661;50.786;12.728;2023-08-17T13:04:04;24.40;1.00
5276;DHT22;2661;50.786;12.728;2023-08-17T13:06:31;24.40;1.00
5276;DHT22;2661;50.786;12.728;2023-08-17T13:09:14;24.40;1.00
5276;DHT22;2661;50.786;12.728;2023-08-17T13:11:42;24.30;1.00
5276;DHT22;2661;50.786;12.728;2023-08-17T13:14:09;24.30;1.00
5276;DHT22;2661;50.786;12.728;2023-08-17T13:16:35;24.20;1.00
5276;DHT22;2661;50.786;12.728;2023-08-17T13:19:02;24.10;1.00
5276;DHT22;2661;50.786;12.728;2023-08-17T13:21:29;24.10;1.00
5276;DHT22;2661;50.786;12.728;2023-08-17T13:23:55;24.10;1.00
5276;DHT22;2661;50.786;12.728;2023-08-17T13:26:22;24.10;1.00
5276;DHT22;2661;50.786;12.728;2023-08-17T13:28:49;24.30;1.00
5276;DHT22;2661;50.786;12.728;2023-08-17T13:31:15;24.50;1.00
5276;DHT22;2661;50.786;12.728;2023-08-17T13:33:50;24.80;1.00
5276;DHT22;2661;50.786;12.728;2023-08-17T13:36:17;25.20;1.00
5276;DHT22;2661;50.786;12.728;2023-08-17T13:38:44;25.50;1.00
5276;DHT22;2661;50.786;12.728;2023-08-17T13:41:12;25.60;1.00
5276;DHT22;2661;50.786;12.728;2023-08-17T13:43:39;25.70;1.00
5276;DHT22;2661;50.786;12.728;2023-08-17T13:46:06;25.70;1.00
5276;DHT22;2661;50.786;12.728;2023-08-17T13:48:33;25.70;1.00
5276;DHT22;2661;50.786;12.728;2023-08-17T13:50:59;25.60;1.00
5276;DHT22;2661;50.786;12.728;2023-08-17T13:53:26;25.60;1.00
5276;DHT22;2661;50.786;12.728;2023-08-17T13:55:53;25.50;1.00
5276;DHT22;2661;50.786;12.728;2023-08-17T13:58:19;25.30;1.00
5276;DHT22;2661;50.786;12.728;2023-08-17T14:00:46;25.30;1.00
5276;DHT22;2661;50.786;12.728;2023-08-17T14:03:13;25.30;1.00
5276;DHT22;2661;50.786;12.728;2023-08-17T14:05:39;25.30;1.00
5276;DHT22;2661;50.786;12.728;2023-08-17T14:08:06;25.40;1.00
5276;DHT22;2661;50.786;12.728;2023-08-17T14:10:34;25.30;1.00
5276;DHT22;2661;50.786;12.728;2023-08-17T14:13:05;25.20;1.00
5276;DHT22;2661;50.786;12.728;2023-08-17T14:15:36;25.20;1.00
5276;DHT22;2661;50.786;12.728;2023-08-17T14:18:03;25.10;1.00
5276;DHT22;2661;50.786;12.728;2023-08-17T14:20:30;25.00;1.00
5276;DHT22;2661;50.786;12.728;2023-08-17T14:22:56;24.90;1.00
5276;DHT22;2661;50.786;12.728;2023-08-17T14:25:23;24.80;1.00
5276;DHT22;2661;50.786;12.728;2023-08-17T14:27:50;24.70;1.00
5276;DHT22;2661;50.786;12.728;2023-08-17T14:30:16;24.60;1.00
5276;DHT22;2661;50.786;12.728;2023-08-17T14:32:43;24.50;1.00
5276;DHT22;2661;50.786;12.728;2023-08-17T14:35:10;24.50;1.00
5276;DHT22;2661;50.786;12.728;2023-08-17T14:37:38;24.40;1.00
5276;DHT22;2661;50.786;12.728;2023-08-17T14:40:05;24.30;1.00
5276;DHT22;2661;50.786;12.728;2023-08-17T14:42:32;24.20;1.00
5276;DHT22;2661;50.786;12.728;2023-08-17T14:44:58;24.10;1.00
5276;DHT22;2661;50.786;12.728;2023-08-17T14:47:31;24.10;1.00
5276;DHT22;2661;50.786;12.728;2023-08-17T14:49:58;24.00;1.00
5276;DHT22;2661;50.786;12.728;2023-08-17T14:52:24;23.90;1.00
5276;DHT22;2661;50.786;12.728;2023-08-17T14:54:58;23.90;1.00
5276;DHT22;2661;50.786;12.728;2023-08-17T14:57:25;23.80;1.00
5276;DHT22;2661;50.786;12.728;2023-08-17T14:59:52;23.70;1.00
5276;DHT22;2661;50.786;12.728;2023-08-17T15:02:18;23.70;1.00
5276;DHT22;2661;50.786;12.728;2023-08-17T15:04:47;23.70;1.00
5276;DHT22;2661;50.786;12.728;2023-08-17T15:07:13;23.60;1.00
5276;DHT22;2661;50.786;12.728;2023-08-17T15:09:40;23.50;1.00
5276;DHT22;2661;50.786;12.728;2023-08-17T15:12:07;23.40;1.00
5276;DHT22;2661;50.786;12.728;2023-08-17T15:14:34;23.30;1.00
5276;DHT22;2661;50.786;12.728;2023-08-17T15:17:00;23.20;1.00
5276;DHT22;2661;50.786;12.728;2023-08-17T15:19:27;23.20;1.00
5276;DHT22;2661;50.786;12.728;2023-08-17T15:22:06;23.10;1.00
5276;DHT22;2661;50.786;12.728;2023-08-17T15:24:32;23.10;1.00
5276;DHT22;2661;50.786;12.728;2023-08-17T15:26:59;22.90;1.00
5276;DHT22;2661;50.786;12.728;2023-08-17T15:29:25;22.80;1.00
5276;DHT22;2661;50.786;12.728;2023-08-17T15:31:52;22.80;1.00
5276;DHT22;2661;50.786;12.728;2023-08-17T15:34:18;22.60;99.90
5276;DHT22;2661;50.786;12.728;2023-08-17T15:36:45;22.50;99.90
5276;DHT22;2661;50.786;12.728;2023-08-17T15:39:12;22.40;99.90
5276;DHT22;2661;50.786;12.728;2023-08-17T15:41:38;22.30;1.00
5276;DHT22;2661;50.786;12.728;2023-08-17T15:44:05;22.20;1.00
5276;DHT22;2661;50.786;12.728;2023-08-17T15:46:31;22.20;1.00
5276;DHT22;2661;50.786;12.728;2023-08-17T15:48:58;22.10;1.00
5276;DHT22;2661;50.786;12.728;2023-08-17T15:51:25;22.00;95.30
5276;DHT22;2661;50.786;12.728;2023-08-17T15:53:54;22.00;99.90
5276;DHT22;2661;50.786;12.728;2023-08-17T15:56:21;21.90;1.00
5276;DHT22;2661;50.786;12.728;2023-08-17T15:58:48;21.90;1.00
5276;DHT22;2661;50.786;12.728;2023-08-17T16:01:14;21.80;99.90
5276;DHT22;2661;50.786;12.728;2023-08-17T16:03:41;21.80;77.50
5276;DHT22;2661;50.786;12.728;2023-08-17T16:06:08;21.80;1.00
5276;DHT22;2661;50.786;12.728;2023-08-17T16:08:34;21.80;1.00